Time;durP1;ratioP1;P1;durP2;ratioP2;P2;SDS_P1;SDS_P2;PMS_P1;PMS_P2;Temp;Humidity;BMP_temperature;BMP_pressure;BME280_temperature;BME280_humidity;BME280_pressure;Samples;Min_cycle;Max_cycle;Signal;HPM_P1;HPM_P2
2023/01/08 00:01:42;;;;;;;10.55;5.18;;;9.00;99.90;;;;;;5041689;28;20022;-71
2023/01/08 00:04:09;;;;;;;8.77;5.32;;;9.10;99.90;;;;;;5040678;28;20061;-71
2023/01/08 00:06:34;;;;;;;8.90;5.63;;;9.10;99.90;;;;;;5041599;28;20045;-71
2023/01/08 00:09:00;;;;;;;8.68;5.18;;;9.10;99.90;;;;;;5040509;28;20029;-72
2023/01/08 00:11:26;;;;;;;13.85;5.55;;;9.20;99.90;;;;;;5041770;28;20021;-70
2023/01/08 00:13:52;;;;;;;8.95;5.40;;;9.10;99.90;;;;;;5042125;28;20462;-70
2023/01/08 00:16:18;;;;;;;8.63;5.57;;;9.00;99.90;;;;;;5041735;28;20088;-70
2023/01/08 00:18:45;;;;;;;9.20;5.60;;;9.10;99.90;;;;;;5041746;28;20018;-71
2023/01/08 00:21:11;;;;;;;10.45;5.13;;;9.10;99.90;;;;;;5041115;28;20049;-72
2023/01/08 00:23:37;;;;;;;8.48;5.35;;;9.10;99.90;;;;;;5041647;28;20021;-70
2023/01/08 00:26:05;;;;;;;9.60;5.47;;;9.20;99.90;;;;;;5041019;28;20056;-71
2023/01/08 00:28:31;;;;;;;10.10;5.30;;;9.20;99.90;;;;;;5039761;28;20030;-73
2023/01/08 00:30:57;;;;;;;9.90;4.95;;;9.20;99.90;;;;;;5040276;28;20034;-72
2023/01/08 00:33:22;;;;;;;9.65;5.00;;;9.20;99.90;;;;;;5041720;28;20022;-73
2023/01/08 00:35:48;;;;;;;11.93;5.63;;;9.20;99.90;;;;;;5041698;28;20032;-71
2023/01/08 00:38:14;;;;;;;9.95;4.78;;;9.20;99.90;;;;;;5041380;28;20159;-73
2023/01/08 00:40:39;;;;;;;10.18;5.63;;;9.20;99.90;;;;;;5040991;28;20025;-73
2023/01/08 00:43:06;;;;;;;7.88;4.88;;;9.20;99.90;;;;;;5041454;28;20100;-71
2023/01/08 00:45:32;;;;;;;10.15;5.22;;;9.20;99.90;;;;;;5040526;28;20089;-71
2023/01/08 00:47:58;;;;;;;11.27;5.22;;;9.20;99.90;;;;;;5041534;28;20033;-72
2023/01/08 00:50:23;;;;;;;9.55;5.20;;;9.10;99.90;;;;;;5040921;28;20072;-72
2023/01/08 00:52:49;;;;;;;10.05;5.35;;;9.20;99.90;;;;;;5040096;28;20083;-71
2023/01/08 00:55:15;;;;;;;11.95;5.82;;;9.10;99.90;;;;;;5041314;28;20466;-72
2023/01/08 00:57:40;;;;;;;10.60;5.75;;;9.10;99.90;;;;;;5041179;28;20409;-71
2023/01/08 01:00:08;;;;;;;8.10;4.88;;;9.10;99.90;;;;;;5041234;28;20029;-71
2023/01/08 01:02:35;;;;;;;8.18;5.25;;;9.10;99.90;;;;;;5039384;28;20021;-71
2023/01/08 01:05:00;;;;;;;9.73;5.38;;;9.10;99.90;;;;;;5038935;28;20037;-71
2023/01/08 01:07:26;;;;;;;9.75;5.63;;;9.10;99.90;;;;;;5039293;28;20029;-72
2023/01/08 01:09:52;;;;;;;9.68;5.53;;;9.20;99.90;;;;;;5040757;28;20021;-71
2023/01/08 01:12:18;;;;;;;9.98;5.57;;;9.20;99.90;;;;;;5040497;28;20473;-71
2023/01/08 01:14:43;;;;;;;9.18;5.07;;;9.20;99.90;;;;;;5041006;28;20033;-72
2023/01/08 01:17:10;;;;;;;14.13;5.93;;;9.20;99.90;;;;;;5040985;28;20021;-71
2023/01/08 01:19:36;;;;;;;8.88;5.55;;;9.30;99.90;;;;;;5040087;28;20224;-70
2023/01/08 01:22:02;;;;;;;11.30;5.10;;;9.10;99.90;;;;;;5039450;28;20037;-71
2023/01/08 01:24:27;;;;;;;9.50;5.53;;;9.10;99.90;;;;;;5040633;28;20130;-72
2023/01/08 01:26:55;;;;;;;10.80;5.63;;;9.10;99.90;;;;;;5039469;28;20056;-71
2023/01/08 01:29:21;;;;;;;10.40;6.00;;;9.10;99.90;;;;;;5038965;28;20022;-72
2023/01/08 01:31:47;;;;;;;9.18;4.88;;;9.10;99.90;;;;;;5040929;28;20092;-71
2023/01/08 01:34:12;;;;;;;8.82;5.03;;;9.10;99.90;;;;;;5040735;28;20021;-70
2023/01/08 01:36:38;;;;;;;9.27;5.63;;;9.10;99.90;;;;;;5040636;28;20048;-71
2023/01/08 01:39:04;;;;;;;10.55;5.53;;;9.10;99.90;;;;;;5040450;28;20037;-73
2023/01/08 01:41:36;;;;;;;10.77;5.80;;;9.10;99.90;;;;;;5040495;28;20108;-71
2023/01/08 01:44:40;;;;;;;12.63;5.72;;;9.20;99.90;;;;;;5040111;28;20172;-71
2023/01/08 01:47:29;;;;;;;9.48;5.30;;;9.20;99.90;;;;;;5040046;28;20048;-71
2023/01/08 01:50:05;;;;;;;10.00;5.57;;;9.20;99.90;;;;;;5040360;28;20026;-70
2023/01/08 01:52:53;;;;;;;8.02;5.65;;;9.20;99.90;;;;;;5040136;28;20021;-71
2023/01/08 01:55:19;;;;;;;11.45;5.25;;;9.20;99.90;;;;;;5040279;28;20171;-71
2023/01/08 01:57:51;;;;;;;8.32;5.50;;;9.20;99.90;;;;;;5037409;28;20135;-71
2023/01/08 02:00:18;;;;;;;11.13;5.50;;;9.20;99.90;;;;;;5037953;28;20077;-71
2023/01/08 02:02:44;;;;;;;8.65;4.93;;;9.10;99.90;;;;;;5039873;28;20082;-71
2023/01/08 02:05:09;;;;;;;10.25;5.75;;;9.10;99.90;;;;;;5038354;28;20053;-71
2023/01/08 02:08:10;;;;;;;10.35;5.30;;;9.10;99.90;;;;;;5040339;28;20022;-71
2023/01/08 02:10:50;;;;;;;9.02;5.15;;;9.10;99.90;;;;;;5031624;28;20093;-73
2023/01/08 02:13:24;;;;;;;10.95;5.53;;;9.00;99.90;;;;;;5040243;28;20518;-71
2023/01/08 02:16:22;;;;;;;8.80;5.15;;;9.00;99.90;;;;;;5039994;28;20030;-71
2023/01/08 02:19:05;;;;;;;12.85;5.65;;;9.00;99.90;;;;;;5039990;28;20086;-71
2023/01/08 02:21:35;;;;;;;10.80;5.00;;;9.00;99.90;;;;;;5040104;28;20029;-70
2023/01/08 02:24:19;;;;;;;9.10;5.70;;;9.00;99.90;;;;;;5040297;28;20032;-71
2023/01/08 02:26:47;;;;;;;9.75;5.35;;;9.20;99.90;;;;;;5043646;28;20060;-71
2023/01/08 02:29:16;;;;;;;11.85;5.68;;;9.10;99.90;;;;;;5044297;28;20034;-71
2023/01/08 02:31:43;;;;;;;10.73;5.57;;;9.10;99.90;;;;;;5044278;28;20018;-71
2023/01/08 02:34:10;;;;;;;9.32;5.43;;;9.10;99.90;;;;;;5043965;28;20679;-71
2023/01/08 02:36:42;;;;;;;11.38;5.75;;;9.10;99.90;;;;;;5043970;28;20486;-71
2023/01/08 02:39:27;;;;;;;8.13;5.25;;;9.20;99.90;;;;;;5043614;28;20037;-71
2023/01/08 02:42:07;;;;;;;7.93;5.03;;;9.20;99.90;;;;;;5041604;28;20045;-71
2023/01/08 02:44:48;;;;;;;8.45;5.43;;;9.20;99.90;;;;;;5042175;28;20085;-70
2023/01/08 02:47:28;;;;;;;10.73;5.15;;;9.20;99.90;;;;;;5042535;28;20087;-70
2023/01/08 02:50:02;;;;;;;9.07;5.63;;;9.30;99.90;;;;;;5042284;28;20026;-70
2023/01/08 02:52:31;;;;;;;12.98;5.65;;;9.30;99.90;;;;;;5042683;28;20034;-70
2023/01/08 02:55:00;;;;;;;13.00;5.15;;;9.30;99.90;;;;;;5041118;28;20030;-72
2023/01/08 02:57:28;;;;;;;11.00;4.75;;;9.30;99.90;;;;;;5041570;28;20544;-74
2023/01/08 02:59:54;;;;;;;10.32;5.70;;;9.30;99.90;;;;;;5041980;28;20056;-70
2023/01/08 03:02:20;;;;;;;9.60;4.78;;;9.30;99.90;;;;;;5042573;28;20104;-70
2023/01/08 03:04:53;;;;;;;9.20;5.78;;;9.30;99.90;;;;;;5041846;28;20538;-71
2023/01/08 03:07:19;;;;;;;11.50;5.47;;;9.30;99.90;;;;;;5041639;28;20048;-71
2023/01/08 03:09:46;;;;;;;10.77;5.05;;;9.30;99.90;;;;;;5042079;28;20041;-73
2023/01/08 03:12:22;;;;;;;8.60;5.07;;;9.40;99.90;;;;;;5040539;28;20037;-71
2023/01/08 03:15:01;;;;;;;9.02;5.03;;;9.40;99.90;;;;;;5040824;28;20049;-71
2023/01/08 03:17:34;;;;;;;10.27;5.32;;;9.40;99.90;;;;;;5041678;28;20475;-71
2023/01/08 03:20:05;;;;;;;9.48;5.40;;;9.40;99.90;;;;;;5041572;28;20025;-70
2023/01/08 03:22:32;;;;;;;8.43;4.78;;;9.30;99.90;;;;;;5041934;28;20036;-71
2023/01/08 03:24:58;;;;;;;8.73;5.43;;;9.40;99.90;;;;;;5040236;28;20050;-72
2023/01/08 03:27:29;;;;;;;9.75;5.93;;;9.30;99.90;;;;;;5040554;28;20033;-71
2023/01/08 03:29:58;;;;;;;9.32;4.95;;;9.40;99.90;;;;;;5042018;28;20054;-74
2023/01/08 03:32:26;;;;;;;9.15;5.13;;;9.40;99.90;;;;;;5040345;28;20400;-71
2023/01/08 03:34:54;;;;;;;9.82;5.15;;;9.40;99.90;;;;;;5041346;28;20022;-73
2023/01/08 03:37:26;;;;;;;9.43;5.25;;;9.40;99.90;;;;;;5039834;28;20044;-71
2023/01/08 03:40:08;;;;;;;10.13;5.22;;;9.40;99.90;;;;;;5041565;28;20056;-72
2023/01/08 03:42:34;;;;;;;9.82;5.60;;;9.40;99.90;;;;;;5041665;28;20040;-71
2023/01/08 03:45:00;;;;;;;10.82;5.80;;;9.40;99.90;;;;;;5040373;28;20021;-73
2023/01/08 03:47:29;;;;;;;10.02;5.57;;;9.40;99.90;;;;;;5039580;28;20042;-71
2023/01/08 03:49:59;;;;;;;14.30;5.35;;;9.40;99.90;;;;;;5040824;28;20096;-71
2023/01/08 03:52:27;;;;;;;11.57;5.20;;;9.40;99.90;;;;;;5041166;28;20049;-73
2023/01/08 03:54:52;;;;;;;9.05;5.57;;;9.40;99.90;;;;;;5039976;28;20025;-70
2023/01/08 03:57:19;;;;;;;9.57;5.57;;;9.40;99.90;;;;;;5040306;28;20022;-74
2023/01/08 03:59:44;;;;;;;10.02;5.97;;;9.40;99.90;;;;;;5041528;28;20040;-71
2023/01/08 04:02:10;;;;;;;10.88;5.82;;;9.40;99.90;;;;;;5041025;28;20029;-72
2023/01/08 04:04:36;;;;;;;9.65;5.15;;;9.40;99.90;;;;;;5041051;28;20391;-73
2023/01/08 04:07:02;;;;;;;10.95;6.05;;;9.40;99.90;;;;;;5041116;28;20071;-71
2023/01/08 04:09:27;;;;;;;12.95;5.50;;;9.40;99.90;;;;;;5041150;28;20034;-71
2023/01/08 04:11:53;;;;;;;8.50;5.20;;;9.40;99.90;;;;;;5040730;28;20037;-71
2023/01/08 04:14:18;;;;;;;9.90;5.80;;;9.40;99.90;;;;;;5041671;28;20043;-72
2023/01/08 04:16:44;;;;;;;14.63;5.53;;;9.40;99.90;;;;;;5042367;28;20029;-72
2023/01/08 04:19:11;;;;;;;10.80;5.57;;;9.40;99.90;;;;;;5042183;28;20033;-72
2023/01/08 04:21:37;;;;;;;8.73;4.85;;;9.30;99.90;;;;;;5040615;28;20025;-72
2023/01/08 04:24:03;;;;;;;10.00;5.25;;;9.30;99.90;;;;;;5042137;28;20439;-70
2023/01/08 04:26:29;;;;;;;8.10;5.00;;;9.30;99.90;;;;;;5042214;28;20052;-72
2023/01/08 04:28:54;;;;;;;8.82;5.03;;;9.30;99.90;;;;;;5042448;28;20033;-73
2023/01/08 04:31:20;;;;;;;10.75;5.10;;;9.20;99.90;;;;;;5041795;28;20017;-71
2023/01/08 04:33:45;;;;;;;8.90;5.05;;;9.20;99.90;;;;;;5042084;28;20040;-71
2023/01/08 04:36:11;;;;;;;9.27;5.45;;;9.10;99.90;;;;;;5041831;28;20013;-72
2023/01/08 04:38:36;;;;;;;8.18;4.75;;;9.20;99.90;;;;;;5041805;28;20036;-72
2023/01/08 04:41:02;;;;;;;11.32;5.70;;;9.00;99.90;;;;;;5041955;28;20087;-71
2023/01/08 04:43:29;;;;;;;9.50;5.25;;;9.00;99.90;;;;;;5041505;28;20018;-71
2023/01/08 04:45:59;;;;;;;9.85;5.28;;;9.00;99.90;;;;;;5041125;28;20037;-73
2023/01/08 04:48:26;;;;;;;10.85;5.47;;;9.00;99.90;;;;;;5040577;28;20116;-72
2023/01/08 04:50:51;;;;;;;8.65;5.22;;;9.00;99.90;;;;;;5041954;28;20040;-72
2023/01/08 04:53:17;;;;;;;11.02;5.20;;;9.00;99.90;;;;;;5041739;28;20029;-71
2023/01/08 04:55:42;;;;;;;9.07;5.40;;;9.00;99.90;;;;;;5041656;28;20029;-72
2023/01/08 04:58:08;;;;;;;12.30;6.07;;;9.00;99.90;;;;;;5040201;28;20089;-71
2023/01/08 05:00:34;;;;;;;12.27;6.40;;;8.90;99.90;;;;;;5041494;28;20052;-72
2023/01/08 05:02:59;;;;;;;12.10;6.50;;;8.90;99.90;;;;;;5041548;28;20034;-72
2023/01/08 05:05:25;;;;;;;12.05;6.25;;;8.90;99.90;;;;;;5041347;28;20029;-71
2023/01/08 05:07:51;;;;;;;11.50;6.78;;;8.90;99.90;;;;;;5041658;28;20044;-72
2023/01/08 05:10:16;;;;;;;10.73;6.00;;;8.90;99.90;;;;;;5040091;28;20017;-72
2023/01/08 05:12:42;;;;;;;10.27;5.93;;;8.90;99.90;;;;;;5041326;28;20068;-71
2023/01/08 05:15:08;;;;;;;9.75;5.97;;;8.90;99.90;;;;;;5041267;28;20029;-72
2023/01/08 05:17:34;;;;;;;9.90;5.53;;;8.90;99.90;;;;;;5040951;28;20096;-70
2023/01/08 05:19:59;;;;;;;11.93;5.50;;;8.90;99.90;;;;;;5041342;28;20116;-71
2023/01/08 05:22:25;;;;;;;9.50;5.45;;;8.90;99.90;;;;;;5041240;28;20028;-71
2023/01/08 05:24:51;;;;;;;9.73;5.22;;;8.90;99.90;;;;;;5041409;28;20041;-73
2023/01/08 05:27:16;;;;;;;7.30;4.63;;;8.90;99.90;;;;;;5037690;28;20797;-71
2023/01/08 05:29:42;;;;;;;10.30;5.15;;;8.90;99.90;;;;;;5040387;28;20036;-72
2023/01/08 05:32:16;;;;;;;10.07;5.50;;;8.90;99.90;;;;;;5041027;28;20032;-71
2023/01/08 05:34:41;;;;;;;8.18;5.03;;;8.90;99.90;;;;;;5039524;28;20127;-72
2023/01/08 05:37:07;;;;;;;9.60;5.60;;;8.90;99.90;;;;;;5040997;28;20479;-71
2023/01/08 05:39:32;;;;;;;8.98;5.38;;;8.90;99.90;;;;;;5039728;28;20033;-72
2023/01/08 05:41:58;;;;;;;9.55;5.13;;;8.90;99.90;;;;;;5039468;28;20030;-72
2023/01/08 05:44:23;;;;;;;10.60;5.70;;;9.00;99.90;;;;;;5041086;28;20085;-73
2023/01/08 05:46:52;;;;;;;9.00;4.65;;;9.00;99.90;;;;;;5040599;28;20044;-73
2023/01/08 05:49:18;;;;;;;9.40;4.93;;;8.90;99.90;;;;;;5040837;28;20113;-71
2023/01/08 05:51:44;;;;;;;7.70;4.80;;;9.00;99.90;;;;;;5039641;28;20093;-71
2023/01/08 05:54:09;;;;;;;9.68;5.35;;;8.90;99.90;;;;;;5040879;28;20029;-71
2023/01/08 05:56:35;;;;;;;7.75;4.80;;;8.90;99.90;;;;;;5041025;28;20096;-72
2023/01/08 05:59:00;;;;;;;12.05;5.28;;;8.90;99.90;;;;;;5042992;28;20033;-72
2023/01/08 06:01:26;;;;;;;11.30;4.68;;;9.00;99.90;;;;;;5045127;28;20052;-71
2023/01/08 06:03:55;;;;;;;12.45;5.47;;;8.90;99.90;;;;;;5045026;28;20021;-71
2023/01/08 06:06:21;;;;;;;10.35;5.38;;;8.90;99.90;;;;;;5043476;28;20041;-71
2023/01/08 06:08:47;;;;;;;9.27;5.22;;;8.90;99.90;;;;;;5044460;28;20025;-72
2023/01/08 06:11:12;;;;;;;7.90;4.28;;;8.90;99.90;;;;;;5044725;28;20472;-71
2023/01/08 06:13:42;;;;;;;10.48;4.95;;;9.00;99.90;;;;;;5044526;28;20021;-72
2023/01/08 06:16:08;;;;;;;10.30;5.07;;;8.90;99.90;;;;;;5044316;28;20022;-73
2023/01/08 06:18:33;;;;;;;8.80;5.03;;;9.00;99.90;;;;;;5044692;28;20076;-71
2023/01/08 06:21:00;;;;;;;11.57;5.95;;;9.00;99.90;;;;;;5039524;28;20035;-71
2023/01/08 06:23:26;;;;;;;10.88;5.55;;;8.90;99.90;;;;;;5043193;28;20049;-72
2023/01/08 06:25:53;;;;;;;10.45;5.32;;;9.00;99.90;;;;;;5040822;28;20050;-73
2023/01/08 06:28:18;;;;;;;10.25;5.20;;;9.00;99.90;;;;;;5039481;28;20029;-71
2023/01/08 06:30:44;;;;;;;9.85;4.93;;;8.90;99.90;;;;;;5040798;28;20059;-71
2023/01/08 06:33:09;;;;;;;9.50;4.78;;;9.00;99.90;;;;;;5043481;28;20062;-72
2023/01/08 06:35:35;;;;;;;8.38;5.00;;;9.00;99.90;;;;;;5042139;28;20117;-72
2023/01/08 06:38:01;;;;;;;11.18;5.72;;;9.00;99.90;;;;;;5044252;28;20509;-72
2023/01/08 06:40:26;;;;;;;9.35;5.25;;;9.00;99.90;;;;;;5032227;28;20026;-72
2023/01/08 06:42:53;;;;;;;9.32;5.07;;;9.00;99.90;;;;;;5030103;28;20091;-72
2023/01/08 06:45:18;;;;;;;9.75;5.82;;;9.00;99.90;;;;;;5035643;28;20109;-73
2023/01/08 06:47:44;;;;;;;10.77;5.53;;;9.00;99.90;;;;;;5037047;28;20041;-72
2023/01/08 06:50:11;;;;;;;10.95;5.13;;;9.00;99.90;;;;;;5038555;28;20083;-72
2023/01/08 06:52:37;;;;;;;10.02;5.28;;;9.00;99.90;;;;;;5037103;28;20037;-72
2023/01/08 06:55:03;;;;;;;8.77;4.70;;;9.00;99.90;;;;;;5043689;28;21379;-72
2023/01/08 06:57:29;;;;;;;10.10;4.57;;;9.00;99.90;;;;;;5042164;28;20037;-72
2023/01/08 06:59:55;;;;;;;9.38;4.60;;;9.00;99.90;;;;;;5043238;28;20021;-70
2023/01/08 07:02:21;;;;;;;7.78;4.45;;;9.00;99.90;;;;;;5037095;28;20034;-71
2023/01/08 07:04:46;;;;;;;9.10;4.57;;;9.00;99.90;;;;;;5032101;28;20036;-71
2023/01/08 07:07:14;;;;;;;8.02;4.20;;;9.00;99.90;;;;;;5034137;28;20037;-70
2023/01/08 07:09:42;;;;;;;7.50;4.03;;;9.00;99.90;;;;;;5027464;28;20034;-71
2023/01/08 07:12:12;;;;;;;10.75;4.88;;;9.00;99.90;;;;;;5034661;28;20049;-71
2023/01/08 07:14:38;;;;;;;7.80;4.10;;;9.10;99.90;;;;;;5034502;28;20030;-71
2023/01/08 07:17:03;;;;;;;8.23;3.85;;;9.10;99.90;;;;;;5040733;28;20040;-71
2023/01/08 07:19:30;;;;;;;8.98;4.00;;;9.10;99.90;;;;;;5039273;28;20033;-70
2023/01/08 07:21:56;;;;;;;8.02;4.07;;;9.10;99.90;;;;;;5043186;28;20025;-70
2023/01/08 07:24:21;;;;;;;4.68;3.28;;;9.10;99.90;;;;;;5039831;28;20079;-70
2023/01/08 07:26:47;;;;;;;6.68;3.83;;;9.10;99.90;;;;;;5043222;28;20045;-70
2023/01/08 07:29:12;;;;;;;7.35;4.10;;;9.10;99.90;;;;;;5043153;28;20191;-71
2023/01/08 07:31:38;;;;;;;13.88;4.80;;;9.00;99.90;;;;;;5039879;28;20044;-71
2023/01/08 07:34:03;;;;;;;12.18;3.78;;;9.00;99.90;;;;;;5042174;28;20030;-71
2023/01/08 07:36:29;;;;;;;6.20;4.00;;;9.00;99.90;;;;;;5041925;28;20036;-72
2023/01/08 07:38:55;;;;;;;9.13;4.20;;;8.90;99.90;;;;;;5040695;28;20048;-70
2023/01/08 07:41:21;;;;;;;9.23;4.22;;;9.00;99.90;;;;;;5041640;28;20037;-70
2023/01/08 07:43:47;;;;;;;6.28;3.83;;;8.90;99.90;;;;;;5042978;28;21094;-71
2023/01/08 07:46:14;;;;;;;9.32;4.68;;;8.90;99.90;;;;;;5040715;28;20051;-71
2023/01/08 07:48:40;;;;;;;8.10;4.50;;;8.90;99.90;;;;;;5033009;28;20056;-71
2023/01/08 07:51:07;;;;;;;9.40;4.72;;;8.90;99.90;;;;;;5027068;28;20103;-70
2023/01/08 07:53:34;;;;;;;8.02;4.82;;;8.90;99.90;;;;;;5032931;28;20030;-69
2023/01/08 07:56:01;;;;;;;9.07;5.00;;;8.90;99.90;;;;;;5042024;28;20156;-70
2023/01/08 07:58:27;;;;;;;7.55;4.45;;;8.90;99.90;;;;;;5042557;28;20017;-71
2023/01/08 08:00:53;;;;;;;7.63;4.47;;;8.90;99.90;;;;;;5042297;28;20032;-72
2023/01/08 08:03:19;;;;;;;8.15;4.18;;;8.90;99.90;;;;;;5042068;28;20103;-70
2023/01/08 08:05:44;;;;;;;7.25;3.90;;;8.90;99.90;;;;;;5039532;28;20406;-71
2023/01/08 08:08:11;;;;;;;9.02;4.70;;;8.90;99.90;;;;;;5040384;28;20051;-72
2023/01/08 08:10:38;;;;;;;10.93;5.15;;;8.90;99.90;;;;;;5039798;28;20494;-70
2023/01/08 08:13:03;;;;;;;11.68;5.15;;;8.90;99.90;;;;;;5042342;28;20052;-71
2023/01/08 08:15:29;;;;;;;11.43;4.70;;;8.90;99.90;;;;;;5040301;28;20045;-71
2023/01/08 08:17:55;;;;;;;10.65;4.60;;;8.90;99.90;;;;;;5041073;28;20041;-74
2023/01/08 08:20:20;;;;;;;8.43;4.55;;;9.00;99.90;;;;;;5041062;28;20033;-71
2023/01/08 08:22:46;;;;;;;10.80;4.70;;;8.90;99.90;;;;;;5042155;28;20032;-71
2023/01/08 08:25:14;;;;;;;8.88;3.90;;;8.90;99.90;;;;;;5039817;28;20501;-72
2023/01/08 08:27:41;;;;;;;9.70;4.78;;;8.90;99.90;;;;;;5039672;28;20053;-70
2023/01/08 08:30:07;;;;;;;7.03;4.43;;;8.90;99.90;;;;;;5041852;28;20031;-71
2023/01/08 08:32:33;;;;;;;12.63;5.13;;;8.90;99.90;;;;;;5039998;28;20045;-71
2023/01/08 08:34:59;;;;;;;7.38;3.97;;;8.90;99.90;;;;;;5040308;28;20028;-73
2023/01/08 08:37:25;;;;;;;13.38;4.15;;;8.90;99.90;;;;;;5041428;28;20036;-73
2023/01/08 08:39:51;;;;;;;7.95;4.13;;;8.90;99.90;;;;;;5040819;28;20393;-72
2023/01/08 08:42:17;;;;;;;9.25;4.63;;;8.90;99.90;;;;;;5040212;28;20139;-73
2023/01/08 08:44:42;;;;;;;12.63;4.50;;;9.00;99.90;;;;;;5040527;28;20538;-71
2023/01/08 08:47:08;;;;;;;8.10;4.20;;;9.00;99.90;;;;;;5039346;28;20084;-72
2023/01/08 08:49:37;;;;;;;10.00;4.03;;;9.00;99.90;;;;;;5041510;28;20021;-72
2023/01/08 08:52:03;;;;;;;8.02;3.75;;;9.00;99.90;;;;;;5041534;28;20032;-72
2023/01/08 08:54:29;;;;;;;10.25;4.47;;;9.00;99.90;;;;;;5041172;28;20022;-73
2023/01/08 08:56:54;;;;;;;7.25;3.85;;;9.00;99.90;;;;;;5040660;28;20117;-73
2023/01/08 08:59:20;;;;;;;10.38;4.55;;;9.00;99.90;;;;;;5040058;28;20428;-72
2023/01/08 09:01:46;;;;;;;8.50;4.43;;;9.10;99.90;;;;;;5041248;28;20049;-72
2023/01/08 09:04:11;;;;;;;8.88;4.28;;;9.10;99.90;;;;;;5039230;28;20029;-72
2023/01/08 09:06:37;;;;;;;6.95;3.75;;;9.10;99.90;;;;;;5038625;28;20125;-72
2023/01/08 09:09:03;;;;;;;7.03;3.92;;;9.10;99.90;;;;;;5041465;28;20029;-72
2023/01/08 09:11:29;;;;;;;8.38;4.10;;;9.10;99.90;;;;;;5040978;28;20041;-72
2023/01/08 09:13:55;;;;;;;7.30;4.15;;;9.10;99.90;;;;;;5040347;28;20034;-71
2023/01/08 09:16:21;;;;;;;8.15;3.58;;;9.10;99.90;;;;;;5041134;28;20470;-73
2023/01/08 09:18:47;;;;;;;6.25;3.85;;;9.20;99.90;;;;;;5039702;28;20034;-71
2023/01/08 09:21:13;;;;;;;7.97;4.22;;;9.20;99.90;;;;;;5039811;28;20430;-71
2023/01/08 09:23:39;;;;;;;10.20;4.18;;;9.20;99.90;;;;;;5039733;28;20052;-71
2023/01/08 09:26:05;;;;;;;7.95;4.25;;;9.20;99.90;;;;;;5040466;28;20107;-72
2023/01/08 09:28:31;;;;;;;9.80;4.07;;;9.20;99.90;;;;;;5041345;28;20018;-72
2023/01/08 09:31:01;;;;;;;9.23;4.03;;;9.20;99.90;;;;;;5039962;28;20022;-71
2023/01/08 09:33:27;;;;;;;10.40;4.68;;;9.20;99.90;;;;;;5039036;28;20031;-70
2023/01/08 09:35:52;;;;;;;10.43;4.22;;;9.20;99.90;;;;;;5039753;28;20127;-70
2023/01/08 09:38:18;;;;;;;6.88;3.60;;;9.20;99.90;;;;;;5039829;28;20032;-70
2023/01/08 09:40:59;;;;;;;5.82;3.53;;;9.20;99.90;;;;;;5039972;28;20065;-70
2023/01/08 09:43:31;;;;;;;11.45;4.78;;;9.20;99.90;;;;;;5041214;28;20029;-72
2023/01/08 09:46:01;;;;;;;7.47;3.80;;;9.20;99.90;;;;;;5038395;28;20038;-71
2023/01/08 09:48:34;;;;;;;7.35;4.03;;;9.20;99.90;;;;;;5040860;28;20028;-71
2023/01/08 09:51:00;;;;;;;5.05;3.40;;;9.20;99.90;;;;;;5039762;28;20038;-71
2023/01/08 09:53:26;;;;;;;7.60;3.40;;;9.20;99.90;;;;;;5037886;28;20081;-72
2023/01/08 09:55:59;;;;;;;7.18;3.42;;;9.20;99.90;;;;;;5040937;28;20043;-72
2023/01/08 09:58:51;;;;;;;8.68;3.28;;;9.20;99.90;;;;;;5041061;28;20033;-71
2023/01/08 10:01:20;;;;;;;7.15;3.20;;;9.20;99.90;;;;;;5035357;28;20701;-70
2023/01/08 10:03:54;;;;;;;9.20;3.60;;;9.20;99.90;;;;;;5038334;28;20037;-72
2023/01/08 10:06:24;;;;;;;4.43;2.90;;;9.20;99.90;;;;;;5039356;28;20029;-69
2023/01/08 10:08:52;;;;;;;7.15;3.42;;;9.30;99.90;;;;;;5036433;28;20125;-71
2023/01/08 10:11:18;;;;;;;6.15;3.17;;;9.30;99.90;;;;;;5038308;28;20057;-70
2023/01/08 10:13:54;;;;;;;13.15;3.78;;;9.40;99.90;;;;;;5039880;28;20029;-72
2023/01/08 10:16:35;;;;;;;8.60;3.78;;;9.30;99.90;;;;;;5037394;28;20398;-71
2023/01/08 10:19:03;;;;;;;12.88;3.05;;;9.20;99.90;;;;;;5036728;28;20029;-72
2023/01/08 10:21:35;;;;;;;6.65;3.28;;;9.20;99.90;;;;;;5038764;28;20100;-71
2023/01/08 10:24:00;;;;;;;6.82;3.10;;;9.40;99.90;;;;;;5039356;28;20076;-72
2023/01/08 10:26:32;;;;;;;6.25;2.85;;;10.10;99.90;;;;;;5037677;28;20041;-73
2023/01/08 10:29:18;;;;;;;4.80;2.88;;;10.80;99.90;;;;;;5040290;28;20029;-72
2023/01/08 10:31:57;;;;;;;6.88;2.58;;;11.50;99.90;;;;;;5039718;28;20029;-73
2023/01/08 10:34:26;;;;;;;5.82;2.88;;;12.10;99.90;;;;;;5038800;28;20205;-71
2023/01/08 10:36:53;;;;;;;4.70;2.20;;;12.50;99.90;;;;;;5039615;28;20186;-70
2023/01/08 10:39:23;;;;;;;3.95;2.28;;;12.90;99.90;;;;;;5038737;28;20022;-70
2023/01/08 10:41:52;;;;;;;4.97;2.80;;;13.30;99.90;;;;;;5039084;28;20064;-69
2023/01/08 10:44:19;;;;;;;8.02;2.55;;;13.60;99.90;;;;;;5039836;28;20056;-70
2023/01/08 10:46:49;;;;;;;4.68;2.50;;;14.00;99.90;;;;;;5043184;28;20045;-70
2023/01/08 10:49:38;;;;;;;8.40;2.85;;;14.30;99.90;;;;;;5043681;28;20032;-70
2023/01/08 10:52:04;;;;;;;6.68;2.60;;;14.40;99.90;;;;;;5042082;28;20066;-70
2023/01/08 10:54:35;;;;;;;4.85;2.67;;;14.10;99.90;;;;;;5044132;28;20542;-70
2023/01/08 10:57:02;;;;;;;7.45;2.58;;;13.60;99.90;;;;;;5043791;28;20088;-71
2023/01/08 10:59:28;;;;;;;4.85;2.10;;;13.30;99.90;;;;;;5041183;28;20045;-67
2023/01/08 11:01:56;;;;;;;4.20;2.28;;;13.40;99.90;;;;;;5043762;28;21290;-70
2023/01/08 11:04:32;;;;;;;6.97;2.90;;;13.50;99.90;;;;;;5039460;28;20064;-69
2023/01/08 11:07:01;;;;;;;7.30;2.70;;;13.70;99.90;;;;;;5040331;28;20033;-70
2023/01/08 11:09:40;;;;;;;8.95;2.58;;;13.90;99.90;;;;;;5041554;28;20037;-68
2023/01/08 11:12:40;;;;;;;6.00;2.65;;;14.10;99.90;;;;;;5043539;28;20081;-70
2023/01/08 11:15:22;;;;;;;7.80;2.38;;;14.60;99.90;;;;;;5042912;28;20160;-72
2023/01/08 11:17:48;;;;;;;3.72;2.03;;;14.90;99.90;;;;;;5041327;28;20029;-72
2023/01/08 11:20:30;;;;;;;6.15;2.38;;;15.10;99.90;;;;;;5040892;28;20041;-70
2023/01/08 11:23:14;;;;;;;4.22;2.22;;;15.40;99.90;;;;;;5042569;28;20026;-69
2023/01/08 11:25:43;;;;;;;3.97;1.88;;;15.50;99.90;;;;;;5037583;28;20080;-72
2023/01/08 11:28:16;;;;;;;3.65;1.95;;;15.70;99.90;;;;;;5036327;28;20034;-70
2023/01/08 11:30:46;;;;;;;4.72;1.83;;;15.90;99.90;;;;;;5038466;28;20025;-71
2023/01/08 11:33:20;;;;;;;5.57;1.92;;;16.20;99.90;;;;;;5041486;28;20570;-71
2023/01/08 11:35:49;;;;;;;4.20;1.85;;;16.20;99.90;;;;;;5040791;28;20047;-71
2023/01/08 11:38:15;;;;;;;3.90;1.58;;;16.40;99.90;;;;;;5042452;28;20036;-72
2023/01/08 11:40:54;;;;;;;5.00;1.40;;;16.40;99.90;;;;;;5037649;28;20033;-70
2023/01/08 11:43:29;;;;;;;5.22;1.55;;;16.60;99.90;;;;;;5035580;28;20039;-72
2023/01/08 11:46:32;;;;;;;5.32;1.60;;;16.70;99.90;;;;;;5042154;28;20097;-71
2023/01/08 11:49:32;;;;;;;3.08;1.35;;;16.80;99.90;;;;;;5041252;28;20029;-71
2023/01/08 11:52:03;;;;;;;6.85;1.58;;;16.90;99.90;;;;;;5041661;28;20029;-71
2023/01/08 11:55:03;;;;;;;4.63;1.27;;;16.80;99.90;;;;;;5041142;28;20060;-71
2023/01/08 11:57:44;;;;;;;4.07;1.20;;;16.90;99.90;;;;;;5037994;28;20030;-70
2023/01/08 12:00:28;;;;;;;4.05;1.38;;;16.80;99.90;;;;;;5040430;28;20044;-69
2023/01/08 12:03:00;;;;;;;5.63;1.30;;;16.40;99.90;;;;;;5040093;28;20033;-71
2023/01/08 12:05:42;;;;;;;5.65;1.27;;;16.40;99.90;;;;;;5040163;28;20037;-70
2023/01/08 12:08:32;;;;;;;6.75;1.48;;;16.30;99.90;;;;;;5038934;28;20041;-69
2023/01/08 12:11:06;;;;;;;5.78;1.45;;;16.30;99.90;;;;;;5040213;28;20049;-69
2023/01/08 12:13:54;;;;;;;5.20;1.40;;;16.40;99.90;;;;;;5038537;28;20025;-69
2023/01/08 12:16:47;;;;;;;3.72;1.13;;;16.60;99.90;;;;;;5041669;28;20037;-69
2023/01/08 12:19:37;;;;;;;4.28;1.10;;;16.70;99.90;;;;;;5040341;28;20040;-71
2023/01/08 12:22:17;;;;;;;4.00;1.20;;;17.00;99.90;;;;;;5039350;28;20029;-70
2023/01/08 12:25:25;;;;;;;6.60;1.33;;;17.00;99.90;;;;;;5041335;28;20057;-71
2023/01/08 12:28:13;;;;;;;5.40;1.25;;;17.00;99.90;;;;;;5040790;28;20040;-71
2023/01/08 12:31:06;;;;;;;5.03;1.40;;;17.20;99.90;;;;;;5038049;28;20033;-71
2023/01/08 12:33:57;;;;;;;5.93;1.45;;;17.20;99.90;;;;;;5035416;28;20037;-70
2023/01/08 12:36:35;;;;;;;11.43;1.70;;;17.20;99.90;;;;;;5037806;28;20041;-72
2023/01/08 12:39:21;;;;;;;6.30;1.80;;;17.30;99.90;;;;;;5039070;28;20035;-70
2023/01/08 12:41:48;;;;;;;7.25;1.40;;;17.40;99.90;;;;;;5040310;28;20473;-71
2023/01/08 12:44:22;;;;;;;8.88;1.92;;;17.50;99.90;;;;;;5041129;28;20029;-70
2023/01/08 12:46:53;;;;;;;7.13;1.20;;;17.70;99.90;;;;;;5030283;28;20159;-70
2023/01/08 12:49:27;;;;;;;5.63;1.75;;;17.80;99.90;;;;;;5036669;28;20034;-70
2023/01/08 12:52:07;;;;;;;11.13;1.40;;;17.90;99.90;;;;;;5034992;28;20031;-69
2023/01/08 12:55:03;;;;;;;8.73;1.48;;;18.00;99.90;;;;;;5038252;28;20033;-69
2023/01/08 12:57:43;;;;;;;11.80;1.55;;;17.70;99.90;;;;;;5037879;28;20029;-71
2023/01/08 13:00:21;;;;;;;7.25;1.52;;;17.20;99.90;;;;;;5040356;28;20052;-70
2023/01/08 13:03:09;;;;;;;7.38;1.65;;;16.90;99.90;;;;;;5039033;28;20463;-69
2023/01/08 13:05:36;;;;;;;11.10;1.52;;;16.80;99.90;;;;;;5040916;28;20028;-69
2023/01/08 13:08:17;;;;;;;8.32;1.70;;;16.90;99.90;;;;;;5037324;28;20030;-71